VQPR Informações do Aeroporto

Informações da Pista
Pista 15 Comprimento 6445 ft Largura 95 ft
Elevação 7355 ft Limite 0 ft Heading 151
Pista 33 Comprimento 6445 ft Largura 95 ft
Elevação 7328 ft Limite 0 ft Heading 331
Frequências do Aeroporto
Navaids do Aeroporto
Tipo NDB Nome Paro Frequência 410 KHZ
Tipo VOR Nome Paro Frequência 108400 KHZ
Informações meteorológicas do aeroporto e NOTAM
ADDS - METARS form results

(0642 UTC 25 September 2020)
Data provider http://aviationweather.gov/metar/data/
 
METAR text: VQPR 250630Z VRB01KT 3000 RA/BR FEW025 OVC050 17/14 Q1019
Conditions at: VQPR (PARO , BT) observed 0630 UTC 25 September 2020
Temperature: 17.0°C (63°F)
Dewpoint: 14.0°C (57°F) [RH = 82%]
Pressure (altimeter): 30.09 inches Hg (1019.0 mb)
Winds: variable direction winds at 1 MPH (1 knots; 0.5 m/s)
Visibility: 1.86 miles (2.99 km)
Ceiling: 5000 feet AGL
Clouds: few clouds at 2500 feet AGL
overcast cloud deck at 5000 feet AGL
Weather: RA BR  (moderate rain, mist)

METAR text: VQPR 250600Z VRB01KT 4000 RA/HZ FEW025 OVC050 18/15 Q1019
Conditions at: VQPR (PARO , BT) observed 0600 UTC 25 September 2020
Temperature: 18.0°C (64°F)
Dewpoint: 15.0°C (59°F) [RH = 83%]
Pressure (altimeter): 30.09 inches Hg (1019.0 mb)
Winds: variable direction winds at 1 MPH (1 knots; 0.5 m/s)
Visibility: 2.49 miles (4.01 km)
Ceiling: 5000 feet AGL
Clouds: few clouds at 2500 feet AGL
overcast cloud deck at 5000 feet AGL
Weather: RA HZ  (moderate rain, haze)